Time;durP1;ratioP1;P1;durP2;ratioP2;P2;SDS_P1;SDS_P2;PMS_P1;PMS_P2;Temp;Humidity;BMP_temperature;BMP_pressure;BME280_temperature;BME280_humidity;BME280_pressure;Samples;Min_cycle;Max_cycle;Signal;HPM_P1;HPM_P2
2022/05/25 00:01:46;;;;;;;0.10;0.10;;;;;;;;;;4991231;28;20929;-79
2022/05/25 00:04:13;;;;;;;0.08;0.08;;;;;;;;;;4991970;28;20938;-78
2022/05/25 00:06:40;;;;;;;0.00;0.00;;;;;;;;;;4992101;28;20895;-78
2022/05/25 00:09:06;;;;;;;0.10;0.10;;;;;;;;;;4991653;28;20760;-78
2022/05/25 00:11:32;;;;;;;0.00;0.00;;;;;;;;;;4991566;28;20422;-78
2022/05/25 00:13:58;;;;;;;0.00;0.00;;;;;;;;;;4974787;28;20418;-78
2022/05/25 00:16:24;;;;;;;0.00;0.00;;;;;;;;;;4991497;28;20414;-78
2022/05/25 00:21:35;;;;;;;0.20;0.20;;;;;;;;;;4991512;28;20410;-78
2022/05/25 00:24:01;;;;;;;0.20;0.20;;;;;;;;;;4974843;28;20533;-78
2022/05/25 00:26:27;;;;;;;0.05;0.05;;;;;;;;;;4991296;28;20425;-79
2022/05/25 00:28:53;;;;;;;0.10;0.10;;;;;;;;;;4991522;28;20984;-79
2022/05/25 00:31:20;;;;;;;0.10;0.10;;;;;;;;;;4990721;28;20905;-79
2022/05/25 00:33:46;;;;;;;0.00;0.00;;;;;;;;;;4991604;28;20458;-79
2022/05/25 00:36:12;;;;;;;0.20;0.20;;;;;;;;;;4991054;28;20964;-79
2022/05/25 00:38:38;;;;;;;0.10;0.10;;;;;;;;;;4991547;28;20414;-79
2022/05/25 00:41:04;;;;;;;0.10;0.10;;;;;;;;;;4974336;28;20429;-79
2022/05/25 00:43:30;;;;;;;0.00;0.00;;;;;;;;;;4991373;28;20410;-79
2022/05/25 00:45:58;;;;;;;0.10;0.10;;;;;;;;;;4991854;28;20414;-79
2022/05/25 00:48:27;;;;;;;0.00;0.00;;;;;;;;;;4991207;28;20418;-79
2022/05/25 00:51:12;;;;;;;0.30;0.30;;;;;;;;;;4991960;28;20486;-79
2022/05/25 00:53:38;;;;;;;0.00;0.00;;;;;;;;;;4991533;28;20503;-78
2022/05/25 00:56:07;;;;;;;0.10;0.10;;;;;;;;;;4991566;28;20414;-79
2022/05/25 00:58:34;;;;;;;0.10;0.10;;;;;;;;;;4991445;28;20913;-79
2022/05/25 01:01:00;;;;;;;0.00;0.00;;;;;;;;;;4974467;28;20881;-79
2022/05/25 01:03:27;;;;;;;0.00;0.00;;;;;;;;;;4991069;28;20442;-78
2022/05/25 01:06:04;;;;;;;0.10;0.10;;;;;;;;;;4991187;28;20906;-79
2022/05/25 01:08:39;;;;;;;0.00;0.00;;;;;;;;;;4991105;28;20407;-78
2022/05/25 01:11:11;;;;;;;0.00;0.00;;;;;;;;;;4991400;28;20913;-78
2022/05/25 01:13:58;;;;;;;0.10;0.10;;;;;;;;;;4990820;28;21028;-79
2022/05/25 01:16:28;;;;;;;0.00;0.00;;;;;;;;;;4990733;28;21036;-79
2022/05/25 01:18:54;;;;;;;0.10;0.10;;;;;;;;;;4991550;28;20483;-79
2022/05/25 01:21:26;;;;;;;0.10;0.10;;;;;;;;;;4990863;28;20437;-78
2022/05/25 01:24:15;;;;;;;0.00;0.00;;;;;;;;;;4992235;28;20414;-79
2022/05/25 01:26:58;;;;;;;0.10;0.10;;;;;;;;;;4994867;28;20604;-79
2022/05/25 01:29:27;;;;;;;0.10;0.10;;;;;;;;;;4994593;28;20472;-79
2022/05/25 01:31:59;;;;;;;0.10;0.10;;;;;;;;;;4994669;28;20513;-79
2022/05/25 01:34:25;;;;;;;0.10;0.10;;;;;;;;;;4976676;28;20513;-79
2022/05/25 01:36:59;;;;;;;0.10;0.10;;;;;;;;;;4994520;28;20411;-79
2022/05/25 01:39:28;;;;;;;0.30;0.30;;;;;;;;;;4994111;28;20480;-81
2022/05/25 01:41:57;;;;;;;0.10;0.10;;;;;;;;;;4995008;28;20391;-80
2022/05/25 01:44:27;;;;;;;0.00;0.00;;;;;;;;;;4976875;28;20419;-79
2022/05/25 01:46:55;;;;;;;0.10;0.10;;;;;;;;;;4994054;28;20460;-79
2022/05/25 01:49:24;;;;;;;0.10;0.10;;;;;;;;;;4994113;28;20447;-79
2022/05/25 01:51:56;;;;;;;0.20;0.20;;;;;;;;;;4994566;28;20960;-79
2022/05/25 01:54:24;;;;;;;0.10;0.10;;;;;;;;;;4993839;28;20467;-79
2022/05/25 01:56:52;;;;;;;0.00;0.00;;;;;;;;;;4993668;28;20539;-79
2022/05/25 01:59:18;;;;;;;0.10;0.10;;;;;;;;;;4993950;28;20530;-78
2022/05/25 02:04:44;;;;;;;0.10;0.10;;;;;;;;;;4949245;28;20863;-79
2022/05/25 02:07:10;;;;;;;0.00;0.00;;;;;;;;;;4994251;28;20446;-79
2022/05/25 02:09:36;;;;;;;0.03;0.03;;;;;;;;;;4993588;28;20750;-78
2022/05/25 02:12:21;;;;;;;0.10;0.10;;;;;;;;;;4994206;28;20521;-79
2022/05/25 02:15:04;;;;;;;0.15;0.15;;;;;;;;;;4993533;28;20419;-79
2022/05/25 02:17:30;;;;;;;0.00;0.00;;;;;;;;;;4993374;28;20929;-79
2022/05/25 02:20:03;;;;;;;0.10;0.10;;;;;;;;;;4976657;28;20517;-79
2022/05/25 02:22:35;;;;;;;0.30;0.30;;;;;;;;;;4993572;28;20450;-79
2022/05/25 02:25:04;;;;;;;0.08;0.08;;;;;;;;;;4993774;28;20497;-79
2022/05/25 02:27:39;;;;;;;0.10;0.10;;;;;;;;;;4993468;28;20410;-79
2022/05/25 02:30:16;;;;;;;0.10;0.10;;;;;;;;;;4993685;28;20934;-79
2022/05/25 02:32:45;;;;;;;0.00;0.00;;;;;;;;;;4993252;28;20468;-79
2022/05/25 02:35:12;;;;;;;0.10;0.10;;;;;;;;;;4993438;28;20757;-79
2022/05/25 02:37:38;;;;;;;0.00;0.00;;;;;;;;;;4993055;28;20419;-79
2022/05/25 02:40:06;;;;;;;0.17;0.17;;;;;;;;;;4993496;28;20472;-79
2022/05/25 02:42:32;;;;;;;0.10;0.10;;;;;;;;;;4993126;28;20452;-79
2022/05/25 02:44:58;;;;;;;0.10;0.10;;;;;;;;;;4993455;28;20472;-79
2022/05/25 02:47:24;;;;;;;0.00;0.00;;;;;;;;;;4975640;28;20422;-79
2022/05/25 02:49:50;;;;;;;1.30;0.70;;;;;;;;;;4976134;28;20410;-79
2022/05/25 02:52:16;;;;;;;0.10;0.10;;;;;;;;;;4975747;28;20964;-79
2022/05/25 02:54:42;;;;;;;0.10;0.10;;;;;;;;;;4993047;28;20413;-78
2022/05/25 02:57:09;;;;;;;0.10;0.10;;;;;;;;;;4959760;28;20426;-79
2022/05/25 02:59:35;;;;;;;0.10;0.10;;;;;;;;;;4992910;28;20410;-79
2022/05/25 03:02:04;;;;;;;0.10;0.10;;;;;;;;;;4993149;28;20411;-79
2022/05/25 03:04:31;;;;;;;0.00;0.00;;;;;;;;;;4992544;28;20454;-79
2022/05/25 03:06:57;;;;;;;0.10;0.10;;;;;;;;;;4992963;28;20410;-78
2022/05/25 03:09:23;;;;;;;0.10;0.10;;;;;;;;;;4992444;28;20766;-79
2022/05/25 03:11:49;;;;;;;0.20;0.20;;;;;;;;;;4993014;28;20431;-79
2022/05/25 03:14:15;;;;;;;0.20;0.20;;;;;;;;;;4992958;28;20418;-79
2022/05/25 03:16:41;;;;;;;0.10;0.10;;;;;;;;;;4974980;28;20453;-79
2022/05/25 03:19:07;;;;;;;0.20;0.20;;;;;;;;;;4992897;28;20417;-79
2022/05/25 03:21:33;;;;;;;0.10;0.10;;;;;;;;;;4992519;28;20425;-79
2022/05/25 03:23:59;;;;;;;0.20;0.20;;;;;;;;;;4992900;28;20490;-79
2022/05/25 03:26:25;;;;;;;0.30;0.30;;;;;;;;;;4992573;28;20472;-79
2022/05/25 03:28:51;;;;;;;0.20;0.20;;;;;;;;;;4991750;28;20889;-79
2022/05/25 03:31:17;;;;;;;0.10;0.10;;;;;;;;;;4992740;28;20415;-79
2022/05/25 03:33:43;;;;;;;0.30;0.30;;;;;;;;;;4992319;28;20796;-80
2022/05/25 03:36:09;;;;;;;0.00;0.00;;;;;;;;;;4975370;28;20422;-79
2022/05/25 03:38:36;;;;;;;0.13;0.13;;;;;;;;;;4991706;28;20438;-79
2022/05/25 03:41:03;;;;;;;0.10;0.10;;;;;;;;;;4992203;28;20885;-79
2022/05/25 03:43:37;;;;;;;0.10;0.10;;;;;;;;;;4975027;28;20445;-79
2022/05/25 03:46:03;;;;;;;0.08;0.08;;;;;;;;;;4992295;28;20414;-79
2022/05/25 03:48:29;;;;;;;0.10;0.10;;;;;;;;;;4991102;28;20417;-79
2022/05/25 03:50:55;;;;;;;0.10;0.10;;;;;;;;;;4992479;28;20873;-79
2022/05/25 03:53:21;;;;;;;0.10;0.10;;;;;;;;;;4991776;28;20426;-79
2022/05/25 03:55:48;;;;;;;0.20;0.20;;;;;;;;;;4991962;28;20410;-80
2022/05/25 03:58:14;;;;;;;0.13;0.13;;;;;;;;;;4991776;28;20419;-79
2022/05/25 04:00:40;;;;;;;0.08;0.08;;;;;;;;;;4991666;28;20420;-80
2022/05/25 04:03:06;;;;;;;0.10;0.10;;;;;;;;;;4974979;28;20481;-79
2022/05/25 04:05:33;;;;;;;0.20;0.20;;;;;;;;;;4974233;28;20414;-79
2022/05/25 04:08:00;;;;;;;0.17;0.10;;;;;;;;;;4992191;28;20483;-79
2022/05/25 04:10:27;;;;;;;0.10;0.10;;;;;;;;;;4974724;28;20513;-79
2022/05/25 04:12:54;;;;;;;0.10;0.10;;;;;;;;;;4991727;28;20521;-79
2022/05/25 04:15:21;;;;;;;0.10;0.10;;;;;;;;;;4992104;28;20498;-79
2022/05/25 04:17:48;;;;;;;0.10;0.10;;;;;;;;;;4991506;28;20421;-79
2022/05/25 04:20:14;;;;;;;0.20;0.20;;;;;;;;;;4991717;28;20425;-79
2022/05/25 04:22:41;;;;;;;0.17;0.17;;;;;;;;;;4991372;28;20441;-79
2022/05/25 04:25:10;;;;;;;0.90;0.40;;;;;;;;;;4991797;28;20418;-79
2022/05/25 04:27:36;;;;;;;0.00;0.00;;;;;;;;;;4991397;28;20494;-79
2022/05/25 04:30:03;;;;;;;0.10;0.10;;;;;;;;;;4991997;28;20460;-79
2022/05/25 04:32:29;;;;;;;0.20;0.20;;;;;;;;;;4974453;28;20508;-80
2022/05/25 04:34:57;;;;;;;0.60;0.47;;;;;;;;;;4991358;28;21033;-79
2022/05/25 04:40:08;;;;;;;0.10;0.10;;;;;;;;;;4991627;28;20423;-80
2022/05/25 04:42:34;;;;;;;0.10;0.10;;;;;;;;;;4991916;28;20494;-80
2022/05/25 04:45:00;;;;;;;0.10;0.10;;;;;;;;;;4991322;28;20410;-79
2022/05/25 04:47:33;;;;;;;0.10;0.10;;;;;;;;;;4991472;28;20481;-80
2022/05/25 04:50:00;;;;;;;0.10;0.10;;;;;;;;;;4990912;28;20410;-79
2022/05/25 04:52:27;;;;;;;0.10;0.10;;;;;;;;;;4991512;28;20443;-79
2022/05/25 04:54:53;;;;;;;0.17;0.15;;;;;;;;;;4991198;28;20488;-79
2022/05/25 04:57:19;;;;;;;0.10;0.10;;;;;;;;;;4991116;28;20766;-80
2022/05/25 04:59:49;;;;;;;0.10;0.10;;;;;;;;;;4993473;28;20889;-79
2022/05/25 05:02:15;;;;;;;0.20;0.20;;;;;;;;;;4994978;28;20407;-79
2022/05/25 05:04:41;;;;;;;0.10;0.10;;;;;;;;;;4994879;28;20406;-79
2022/05/25 05:07:07;;;;;;;0.25;0.25;;;;;;;;;;4995093;28;20405;-79
2022/05/25 05:09:34;;;;;;;0.10;0.10;;;;;;;;;;4995107;28;20441;-79
2022/05/25 05:12:00;;;;;;;0.40;0.40;;;;;;;;;;4994761;28;20569;-79
2022/05/25 05:14:26;;;;;;;0.10;0.10;;;;;;;;;;4995292;28;20501;-80
2022/05/25 05:16:57;;;;;;;0.37;0.27;;;;;;;;;;4994458;28;20414;-79
2022/05/25 05:19:24;;;;;;;0.10;0.10;;;;;;;;;;4994703;28;20890;-79
2022/05/25 05:21:50;;;;;;;0.10;0.10;;;;;;;;;;4994645;28;20761;-79
2022/05/25 05:24:17;;;;;;;0.60;0.60;;;;;;;;;;4977659;28;20793;-79
2022/05/25 05:26:43;;;;;;;0.10;0.10;;;;;;;;;;4977438;28;20948;-79
2022/05/25 05:29:09;;;;;;;0.20;0.20;;;;;;;;;;4994680;28;20418;-80
2022/05/25 05:31:35;;;;;;;0.05;0.05;;;;;;;;;;4977674;28;20433;-80
2022/05/25 05:34:01;;;;;;;0.63;0.43;;;;;;;;;;4977334;28;20549;-80
2022/05/25 05:36:29;;;;;;;0.20;0.20;;;;;;;;;;4994612;28;20418;-80
2022/05/25 05:38:55;;;;;;;0.10;0.10;;;;;;;;;;4976701;28;20414;-79
2022/05/25 05:41:20;;;;;;;;;;;;;;;;;;4978550;28;20065;-80
2022/05/25 05:43:46;;;;;;;;;;;;;;;;;;4995921;28;19925;-79
2022/05/25 05:46:12;;;;;;;;;;;;;;;;;;4996111;28;19937;-80
2022/05/25 05:48:38;;;;;;;;;;;;;;;;;;4995434;28;19983;-80
2022/05/25 05:51:04;;;;;;;;;;;;;;;;;;4994959;28;19975;-78
2022/05/25 05:53:30;;;;;;;;;;;;;;;;;;4995581;28;19929;-80
2022/05/25 05:55:56;;;;;;;;;;;;;;;;;;4978372;28;19922;-80
2022/05/25 05:58:22;;;;;;;;;;;;;;;;;;4995976;28;20493;-79
2022/05/25 06:00:48;;;;;;;;;;;;;;;;;;4995082;28;20394;-80
2022/05/25 06:03:15;;;;;;;;;;;;;;;;;;4978570;28;19979;-81
2022/05/25 06:05:41;;;;;;;;;;;;;;;;;;4978306;28;19926;-80
2022/05/25 06:08:07;;;;;;;;;;;;;;;;;;4995125;28;20185;-78
2022/05/25 06:10:33;;;;;;;;;;;;;;;;;;4994683;28;20389;-80
2022/05/25 06:12:59;;;;;;;;;;;;;;;;;;4994572;28;19983;-83
2022/05/25 06:20:55;;;;;;;;;;;;;;;;;;4948416;28;19972;-79
2022/05/25 06:23:21;;;;;;;;;;;;;;;;;;4994967;28;20364;-81
2022/05/25 06:25:47;;;;;;;;;;;;;;;;;;4995319;28;20357;-80
2022/05/25 06:28:13;;;;;;;;;;;;;;;;;;4995537;28;20388;-78
2022/05/25 06:30:39;;;;;;;;;;;;;;;;;;4995351;28;20361;-80
2022/05/25 06:33:05;;;;;;;;;;;;;;;;;;4995157;28;19929;-81
2022/05/25 06:35:31;;;;;;;;;;;;;;;;;;4995166;28;19921;-81
2022/05/25 06:37:57;;;;;;;;;;;;;;;;;;4994481;28;19984;-83
2022/05/25 06:40:23;;;;;;;;;;;;;;;;;;4977912;28;19926;-80
2022/05/25 06:42:51;;;;;;;;;;;;;;;;;;4977621;28;19976;-80
2022/05/25 06:45:17;;;;;;;;;;;;;;;;;;4977228;28;19921;-81
2022/05/25 06:47:43;;;;;;;;;;;;;;;;;;4994937;28;19972;-80
2022/05/25 06:50:09;;;;;;;;;;;;;;;;;;4994690;28;20289;-80
2022/05/25 06:52:35;;;;;;;;;;;;;;;;;;4994672;28;20269;-80
2022/05/25 06:55:01;;;;;;;;;;;;;;;;;;4994228;28;20328;-79
2022/05/25 06:57:27;;;;;;;;;;;;;;;;;;4994532;28;19921;-80
2022/05/25 06:59:53;;;;;;;;;;;;;;;;;;4994551;28;20365;-79
2022/05/25 07:02:19;;;;;;;;;;;;;;;;;;4994390;28;19921;-81
2022/05/25 07:04:45;;;;;;;;;;;;;;;;;;4977195;28;19929;-83
2022/05/25 07:07:11;;;;;;;;;;;;;;;;;;4976456;28;19928;-81
2022/05/25 07:09:39;;;;;;;;;;;;;;;;;;4994405;28;20017;-82
2022/05/25 07:12:05;;;;;;;;;;;;;;;;;;4960955;28;19928;-82
2022/05/25 07:14:31;;;;;;;;;;;;;;;;;;4994767;28;19925;-81
2022/05/25 07:16:58;;;;;;;;;;;;;;;;;;4993228;28;19976;-80
2022/05/25 07:19:24;;;;;;;;;;;;;;;;;;4993538;28;19933;-82
2022/05/25 07:21:50;;;;;;;;;;;;;;;;;;4976822;28;20420;-82
2022/05/25 07:24:16;;;;;;;;;;;;;;;;;;4993313;28;19925;-81
2022/05/25 07:26:42;;;;;;;;;;;;;;;;;;4993532;28;19922;-81
2022/05/25 07:29:08;;;;;;;;;;;;;;;;;;4993526;28;19922;-82
2022/05/25 07:31:35;;;;;;;;;;;;;;;;;;4994267;28;20324;-83
2022/05/25 07:34:01;;;;;;;;;;;;;;;;;;4975808;28;20309;-82
2022/05/25 07:36:27;;;;;;;;;;;;;;;;;;4993997;28;19922;-84
2022/05/25 07:38:53;;;;;;;;;;;;;;;;;;4994071;28;19929;-83
2022/05/25 07:41:19;;;;;;;;;;;;;;;;;;4993344;28;19918;-83
2022/05/25 07:43:45;;;;;;;;;;;;;;;;;;4977155;28;20269;-84
2022/05/25 07:46:11;;;;;;;;;;;;;;;;;;4993067;28;19928;-82
2022/05/25 07:48:36;;;;;;;;;;;;;;;;;;4993842;28;19928;-83
2022/05/25 07:51:02;;;;;;;;;;;;;;;;;;4976655;28;19922;-80
2022/05/25 07:56:13;;;;;;;;;;;;;;;;;;4975775;28;20320;-82
2022/05/25 07:58:39;;;;;;;;;;;;;;;;;;4994117;28;19922;-82
2022/05/25 08:01:05;;;;;;;;;;;;;;;;;;4993123;28;19991;-81
2022/05/25 08:06:15;;;;;;;;;;;;;;;;;;4992733;28;20365;-82
2022/05/25 08:08:42;;;;;;;;;;;;;;;;;;4976733;28;19976;-82
2022/05/25 08:11:07;;;;;;;;;;;;;;;;;;4992969;28;19929;-82
2022/05/25 08:13:33;;;;;;;;;;;;;;;;;;4993399;28;20289;-83
2022/05/25 08:15:59;;;;;;;;;;;;;;;;;;4993589;28;19937;-83
2022/05/25 08:18:25;;;;;;;;;;;;;;;;;;4993234;28;20412;-81
2022/05/25 08:20:51;;;;;;;;;;;;;;;;;;4994130;28;19921;-87
2022/05/25 08:23:17;;;;;;;;;;;;;;;;;;4975696;28;20388;-86
2022/05/25 08:25:43;;;;;;;;;;;;;;;;;;4976110;28;20087;-89
2022/05/25 08:28:09;;;;;;;;;;;;;;;;;;4974868;28;20015;-81
2022/05/25 08:30:35;;;;;;;;;;;;;;;;;;4993782;28;19921;-81
2022/05/25 08:33:01;;;;;;;;;;;;;;;;;;4960938;28;20052;-83
2022/05/25 08:35:27;;;;;;;;;;;;;;;;;;4997006;28;19921;-84
2022/05/25 08:37:53;;;;;;;;;;;;;;;;;;4980299;28;19928;-83
2022/05/25 08:40:19;;;;;;;;;;;;;;;;;;4979505;28;19945;-81
2022/05/25 08:42:45;;;;;;;;;;;;;;;;;;4979870;28;20400;-81
2022/05/25 08:45:11;;;;;;;;;;;;;;;;;;4996434;28;19929;-81
2022/05/25 08:47:37;;;;;;;;;;;;;;;;;;4996859;28;20024;-82
2022/05/25 08:50:03;;;;;;;;;;;;;;;;;;4979571;28;19922;-80
2022/05/25 08:52:29;;;;;;;;;;;;;;;;;;4996555;28;19922;-81
2022/05/25 08:54:55;;;;;;;;;;;;;;;;;;4997498;28;19975;-81
2022/05/25 08:57:21;;;;;;;;;;;;;;;;;;4996236;28;19971;-81
2022/05/25 08:59:46;;;;;;;;;;;;;;;;;;4996958;28;19925;-80
2022/05/25 09:02:12;;;;;;;;;;;;;;;;;;4995980;28;19922;-80
2022/05/25 09:04:38;;;;;;;;;;;;;;;;;;4997096;28;20285;-78
2022/05/25 09:07:04;;;;;;;;;;;;;;;;;;4997216;28;20273;-86
2022/05/25 09:09:30;;;;;;;;;;;;;;;;;;4978984;28;20479;-81
2022/05/25 09:11:56;;;;;;;;;;;;;;;;;;4996528;28;20372;-82
2022/05/25 09:14:22;;;;;;;;;;;;;;;;;;4995942;28;19922;-77
2022/05/25 09:16:48;;;;;;;;;;;;;;;;;;4996609;28;19944;-77
2022/05/25 09:19:14;;;;;;;;;;;;;;;;;;4996178;28;19926;-77
2022/05/25 09:21:40;;;;;;;;;;;;;;;;;;4996688;28;19926;-77
2022/05/25 09:24:06;;;;;;;;;;;;;;;;;;4996899;28;19922;-78
2022/05/25 09:26:32;;;;;;;;;;;;;;;;;;4996386;28;19945;-78
2022/05/25 09:28:58;;;;;;;;;;;;;;;;;;4996430;28;19922;-78
2022/05/25 09:31:24;;;;;;;;;;;;;;;;;;4995958;28;19995;-78
2022/05/25 09:33:50;;;;;;;;;;;;;;;;;;4996561;28;19929;-78
2022/05/25 09:36:16;;;;;;;;;;;;;;;;;;4996046;28;19929;-77
2022/05/25 09:38:42;;;;;;;;;;;;;;;;;;4996254;28;19922;-77
2022/05/25 09:41:08;;;;;;;;;;;;;;;;;;4996068;28;19944;-78
2022/05/25 09:43:34;;;;;;;;;;;;;;;;;;4995739;28;19933;-78
2022/05/25 09:46:00;;;;;;;;;;;;;;;;;;4995172;28;19929;-78
2022/05/25 09:48:29;;;;;;;;;;;;;;;;;;4995797;28;19921;-78
2022/05/25 09:50:55;;;;;;;;;;;;;;;;;;4978624;28;19926;-78
2022/05/25 09:53:22;;;;;;;;;;;;;;;;;;4995190;28;19976;-78
2022/05/25 09:55:48;;;;;;;;;;;;;;;;;;4996128;28;19928;-78
2022/05/25 09:58:14;;;;;;;;;;;;;;;;;;4995601;28;19925;-78
2022/05/25 10:00:40;;;;;;;;;;;;;;;;;;4995618;28;19925;-78
2022/05/25 10:03:06;;;;;;;;;;;;;;;;;;4996249;28;20276;-78
2022/05/25 10:05:34;;;;;;;;;;;;;;;;;;4978144;28;19922;-78
2022/05/25 10:08:03;;;;;;;;;;;;;;;;;;4995948;28;20012;-78
2022/05/25 10:10:29;;;;;;;;;;;;;;;;;;4995794;28;19976;-77
2022/05/25 10:12:55;;;;;;;;;;;;;;;;;;4995689;28;20024;-77
2022/05/25 10:15:21;;;;;;;;;;;;;;;;;;4994725;28;20381;-77
2022/05/25 10:17:47;;;;;;;;;;;;;;;;;;4995399;28;20021;-77
2022/05/25 10:20:13;;;;;;;;;;;;;;;;;;4995656;28;19949;-77
2022/05/25 10:22:41;;;;;;;;;;;;;;;;;;4994819;28;19925;-77
2022/05/25 10:25:06;;;;;;;;;;;;;;;;;;4995595;28;19922;-77
2022/05/25 10:27:32;;;;;;;;;;;;;;;;;;4993896;28;20000;-76
2022/05/25 10:38:12;;;;;;;;;;;;;;;;;;4995178;28;19972;-78
2022/05/25 10:40:38;;;;;;;;;;;;;;;;;;4994648;28;19941;-77
2022/05/25 10:43:04;;;;;;;;;;;;;;;;;;4994908;28;19932;-78
2022/05/25 10:45:32;;;;;;;;;;;;;;;;;;4994683;28;19922;-78
2022/05/25 10:47:59;;;;;;;;;;;;;;;;;;4994200;28;19921;-77
2022/05/25 10:50:25;;;;;;;;;;;;;;;;;;4994362;28;19976;-78
2022/05/25 10:52:51;;;;;;;;;;;;;;;;;;4994651;28;19922;-77
2022/05/25 10:55:18;;;;;;;;;;;;;;;;;;4994532;28;19922;-78
2022/05/25 10:57:44;;;;;;;;;;;;;;;;;;4992781;28;19921;-79
2022/05/25 11:00:10;;;;;;;;;;;;;;;;;;4993671;28;19928;-77
2022/05/25 11:02:36;;;;;;;;;;;;;;;;;;4976558;28;20262;-79
2022/05/25 11:05:02;;;;;;;;;;;;;;;;;;4994514;28;19922;-79
2022/05/25 11:07:27;;;;;;;;;;;;;;;;;;4994288;28;19922;-78
2022/05/25 11:09:53;;;;;;;;;;;;;;;;;;4976922;28;19926;-82
2022/05/25 11:12:19;;;;;;;;;;;;;;;;;;4977308;28;20250;-80
2022/05/25 11:14:45;;;;;;;;;;;;;;;;;;4993764;28;20117;-80
2022/05/25 11:17:11;;;;;;;;;;;;;;;;;;4961360;28;20385;-81
2022/05/25 11:19:37;;;;;;;;;;;;;;;;;;4994093;28;19921;-81
2022/05/25 11:22:03;;;;;;;;;;;;;;;;;;4976919;28;19922;-80
2022/05/25 11:24:29;;;;;;;;;;;;;;;;;;4976326;28;19921;-80
2022/05/25 11:26:55;;;;;;;;;;;;;;;;;;4994575;28;19976;-80
2022/05/25 11:29:21;;;;;;;;;;;;;;;;;;4994318;28;20324;-80
2022/05/25 11:31:47;;;;;;;;;;;;;;;;;;4993884;28;20103;-80
2022/05/25 11:34:13;;;;;;;;;;;;;;;;;;4993784;28;19922;-82
2022/05/25 11:36:39;;;;;;;;;;;;;;;;;;4993568;28;19922;-78
2022/05/25 11:39:05;;;;;;;;;;;;;;;;;;4993850;28;20373;-79
2022/05/25 11:41:31;;;;;;;;;;;;;;;;;;4993529;28;19921;-78
2022/05/25 11:43:57;;;;;;;;;;;;;;;;;;4976723;28;19922;-79
2022/05/25 11:46:23;;;;;;;;;;;;;;;;;;4993945;28;19925;-78
2022/05/25 11:48:51;;;;;;;;;;;;;;;;;;4993624;28;20442;-79
2022/05/25 11:51:17;;;;;;;;;;;;;;;;;;4994210;28;19926;-78
2022/05/25 11:53:43;;;;;;;;;;;;;;;;;;4993492;28;20250;-78
2022/05/25 11:56:09;;;;;;;;;;;;;;;;;;4994100;28;20360;-78
2022/05/25 11:58:36;;;;;;;;;;;;;;;;;;4993527;28;19929;-77
2022/05/25 12:01:02;;;;;;;;;;;;;;;;;;4993393;28;20303;-78
2022/05/25 12:03:28;;;;;;;;;;;;;;;;;;4993873;28;19928;-78
2022/05/25 12:05:54;;;;;;;;;;;;;;;;;;4993964;28;20020;-78
2022/05/25 12:08:20;;;;;;;;;;;;;;;;;;4993617;28;19921;-78
2022/05/25 12:10:46;;;;;;;;;;;;;;;;;;4993360;28;19976;-78
2022/05/25 12:13:12;;;;;;;;;;;;;;;;;;4993640;28;20254;-78
2022/05/25 12:15:38;;;;;;;;;;;;;;;;;;4993365;28;20361;-77
2022/05/25 12:18:04;;;;;;;;;;;;;;;;;;4993868;28;19925;-77
2022/05/25 12:20:30;;;;;;;;;;;;;;;;;;4993580;28;20387;-77
2022/05/25 12:22:56;;;;;;;;;;;;;;;;;;4992879;28;20374;-77
2022/05/25 12:25:22;;;;;;;;;;;;;;;;;;4993194;28;19921;-78
2022/05/25 12:27:48;;;;;;;;;;;;;;;;;;4993451;28;19922;-77
2022/05/25 12:30:14;;;;;;;;;;;;;;;;;;4993310;28;19926;-77
2022/05/25 12:32:40;;;;;;;;;;;;;;;;;;4992822;28;19925;-77
2022/05/25 12:35:06;;;;;;;;;;;;;;;;;;4993413;28;19928;-77
2022/05/25 12:37:32;;;;;;;;;;;;;;;;;;4993624;28;19937;-77
2022/05/25 12:39:58;;;;;;;;;;;;;;;;;;4992883;28;19968;-77
2022/05/25 12:42:24;;;;;;;;;;;;;;;;;;4993517;28;20365;-77
2022/05/25 12:50:19;;;;;;;;;;;;;;;;;;4993093;28;19921;-77
2022/05/25 12:52:46;;;;;;;;;;;;;;;;;;4992751;28;19922;-77
2022/05/25 12:55:13;;;;;;;;;;;;;;;;;;4993235;28;19964;-77
2022/05/25 12:57:39;;;;;;;;;;;;;;;;;;4992680;28;19921;-77
2022/05/25 13:00:05;;;;;;;;;;;;;;;;;;4993507;28;19922;-77
2022/05/25 13:02:31;;;;;;;;;;;;;;;;;;4993014;28;19921;-77
2022/05/25 13:04:59;;;;;;;;;;;;;;;;;;4992831;28;19987;-77
2022/05/25 13:07:25;;;;;;;;;;;;;;;;;;4993504;28;19922;-77
2022/05/25 13:09:51;;;;;;;;;;;;;;;;;;4993039;28;20285;-77
2022/05/25 13:12:17;;;;;;;;;;;;;;;;;;4992956;28;20302;-77
2022/05/25 13:14:43;;;;;;;;;;;;;;;;;;4992026;28;19944;-77
2022/05/25 13:17:13;;;;;;;;;;;;;;;;;;4992919;28;20011;-77
2022/05/25 13:19:39;;;;;;;;;;;;;;;;;;4993769;28;19928;-77
2022/05/25 13:22:09;;;;;;;;;;;;;;;;;;4996580;28;20124;-77
2022/05/25 13:24:35;;;;;;;;;;;;;;;;;;4996453;28;19922;-77
2022/05/25 13:27:01;;;;;;;;;;;;;;;;;;4996031;28;19976;-76
2022/05/25 13:29:27;;;;;;;;;;;;;;;;;;4996751;28;19922;-77
2022/05/25 13:31:53;;;;;;;;;;;;;;;;;;4996071;28;19925;-77
2022/05/25 13:34:19;;;;;;;;;;;;;;;;;;4996226;28;19927;-77
2022/05/25 13:36:45;;;;;;;;;;;;;;;;;;4996126;28;19921;-77
2022/05/25 13:39:11;;;;;;;;;;;;;;;;;;4996733;28;20250;-77
2022/05/25 13:41:37;;;;;;;;;;;;;;;;;;4996292;28;19922;-77
2022/05/25 13:44:04;;;;;;;;;;;;;;;;;;4995811;28;19975;-77
2022/05/25 13:46:30;;;;;;;;;;;;;;;;;;4996260;28;20305;-77
2022/05/25 13:48:57;;;;;;;;;;;;;;;;;;4995984;28;19929;-77
2022/05/25 13:51:24;;;;;;;;;;;;;;;;;;4996391;28;19969;-77
2022/05/25 13:53:51;;;;;;;;;;;;;;;;;;4995178;28;20357;-77
2022/05/25 13:56:17;;;;;;;;;;;;;;;;;;4996331;28;19922;-77
2022/05/25 13:58:43;;;;;;;;;;;;;;;;;;4978871;28;19922;-77
2022/05/25 14:01:09;;;;;;;;;;;;;;;;;;4995850;28;19928;-76
2022/05/25 14:03:35;;;;;;;;;;;;;;;;;;4978361;28;19953;-77
2022/05/25 14:06:04;;;;;;;;;;;;;;;;;;4995121;28;19984;-76
2022/05/25 14:11:14;;;;;;;;;;;;;;;;;;4995670;28;19932;-76
2022/05/25 14:13:41;;;;;;;;;;;;;;;;;;4995205;28;20016;-76
2022/05/25 14:16:07;;;;;;;;;;;;;;;;;;4995448;28;19928;-76
2022/05/25 14:18:33;;;;;;;;;;;;;;;;;;4995633;28;19928;-77
2022/05/25 14:20:59;;;;;;;;;;;;;;;;;;4995062;28;19925;-76
2022/05/25 14:23:25;;;;;;;;;;;;;;;;;;4995762;28;19926;-77
2022/05/25 14:25:51;;;;;;;;;;;;;;;;;;4995029;28;19922;-76
2022/05/25 14:28:17;;;;;;;;;;;;;;;;;;4995587;28;19922;-77
2022/05/25 14:30:43;;;;;;;;;;;;;;;;;;4995089;28;19922;-77
2022/05/25 14:33:09;;;;;;;;;;;;;;;;;;4994908;28;20031;-76
2022/05/25 14:35:35;;;;;;;;;;;;;;;;;;4995337;28;19970;-77
2022/05/25 14:38:01;;;;;;;;;;;;;;;;;;4994898;28;19929;-76
2022/05/25 14:40:27;;;;;;;;;;;;;;;;;;4994866;28;19922;-76
2022/05/25 14:42:53;;;;;;;;;;;;;;;;;;4994714;28;19972;-76
2022/05/25 14:45:19;;;;;;;;;;;;;;;;;;4994956;28;19922;-77
2022/05/25 14:47:45;;;;;;;;;;;;;;;;;;4995288;28;19928;-76
2022/05/25 14:50:11;;;;;;;;;;;;;;;;;;4994889;28;19924;-76
2022/05/25 14:52:38;;;;;;;;;;;;;;;;;;4994893;28;20357;-76
2022/05/25 14:55:04;;;;;;;;;;;;;;;;;;4994331;28;19932;-76
2022/05/25 14:57:30;;;;;;;;;;;;;;;;;;4995170;28;20024;-77
2022/05/25 14:59:56;;;;;;;;;;;;;;;;;;4994705;28;19929;-76
2022/05/25 15:02:22;;;;;;;;;;;;;;;;;;4994323;28;19921;-76
2022/05/25 15:04:48;;;;;;;;;;;;;;;;;;4994822;28;19921;-77
2022/05/25 15:07:14;;;;;;;;;;;;;;;;;;4994188;28;19925;-76
2022/05/25 15:09:43;;;;;;;;;;;;;;;;;;4994901;28;19926;-77
2022/05/25 15:12:09;;;;;;;;;;;;;;;;;;4994262;28;19928;-76
2022/05/25 15:20:03;;;;;;;;;;;;;;;;;;4994420;28;19976;-76
2022/05/25 15:22:29;;;;;;;;;;;;;;;;;;4994314;28;20008;-77
2022/05/25 15:24:55;;;;;;;;;;;;;;;;;;4993904;28;20383;-77
2022/05/25 15:27:22;;;;;;;;;;;;;;;;;;4994604;28;19929;-76
2022/05/25 15:29:50;;;;;;;;;;;;;;;;;;4994576;28;19922;-77
2022/05/25 15:32:16;;;;;;;;;;;;;;;;;;4976958;28;20487;-77
2022/05/25 15:34:42;;;;;;;;;;;;;;;;;;4993995;28;19921;-77
2022/05/25 15:37:08;;;;;;;;;;;;;;;;;;4992745;28;19925;-77
2022/05/25 15:39:34;;;;;;;;;;;;;;;;;;4994445;28;19926;-77
2022/05/25 15:42:00;;;;;;;;;;;;;;;;;;4975757;28;19928;-77
2022/05/25 15:44:26;;;;;;;;;;;;;;;;;;4993986;28;19943;-77
2022/05/25 15:46:52;;;;;;;;;;;;;;;;;;4993855;28;19921;-77
2022/05/25 15:49:18;;;;;;;;;;;;;;;;;;4993476;28;19991;-77
2022/05/25 15:51:44;;;;;;;;;;;;;;;;;;4994192;28;19932;-77
2022/05/25 15:54:11;;;;;;;;;;;;;;;;;;4993324;28;19968;-77
2022/05/25 15:56:37;;;;;;;;;;;;;;;;;;4993797;28;19965;-77
2022/05/25 15:59:03;;;;;;;;;;;;;;;;;;4993531;28;19922;-77
2022/05/25 16:01:29;;;;;;;;;;;;;;;;;;4994093;28;20387;-76
2022/05/25 16:03:55;;;;;;;;;;;;;;;;;;4993985;28;19992;-77
2022/05/25 16:06:21;;;;;;;;;;;;;;;;;;4975925;28;19928;-77
2022/05/25 16:11:33;;;;;;;;;;;;;;;;;;4994012;28;19928;-77
2022/05/25 16:14:01;;;;;;;;;;;;;;;;;;4993898;28;19922;-77
2022/05/25 16:16:27;;;;;;;;;;;;;;;;;;4993869;28;19980;-77
2022/05/25 16:18:54;;;;;;;;;;;;;;;;;;4992872;28;19922;-77
2022/05/25 16:21:20;;;;;;;;;;;;;;;;;;4993048;28;20357;-76
2022/05/25 16:23:46;;;;;;;;;;;;;;;;;;4993770;28;19928;-77
2022/05/25 16:26:14;;;;;;;;;;;;;;;;;;4976106;28;19928;-77
2022/05/25 16:28:40;;;;;;;;;;;;;;;;;;4993215;28;19929;-77
2022/05/25 16:31:06;;;;;;;;;;;;;;;;;;4992859;28;19922;-77
2022/05/25 16:33:31;;;;;;;;;;;;;;;;;;4993409;28;20023;-77
2022/05/25 16:35:57;;;;;;;;;;;;;;;;;;4976380;28;19929;-77
2022/05/25 16:38:23;;;;;;;;;;;;;;;;;;4992476;28;19924;-77
2022/05/25 16:40:49;;;;;;;;;;;;;;;;;;4992906;28;19922;-77